Private Wetterstation Sandau
Wetterdaten: Mittwoch, 12.12.2012
Datum Zeit Temp. A. Feuchte A. Luftdruck Regen Wind Richtung Richtung Taupunkt Windchill
12.12.2012 00:01 -3,0 C 82 % 1021,9 hPa 0,0 l/m 11,9 km/h (2 Bft) N-NO 22 -5,6 C -7,4 C
12.12.2012 00:06 -3,0 C 82 % 1021,8 hPa 0,0 l/m 7,9 km/h (2 Bft) N-NO 22 -5,6 C -6,2 C
12.12.2012 00:11 -3,0 C 82 % 1021,8 hPa 0,0 l/m 9,0 km/h (2 Bft) N-NO 22 -5,6 C -6,6 C
12.12.2012 00:16 -3,1 C 82 % 1021,9 hPa 0,0 l/m 10,8 km/h (2 Bft) N-NO 22 -5,7 C -7,2 C
12.12.2012 00:21 -3,1 C 82 % 1021,7 hPa 0,0 l/m 9,4 km/h (2 Bft) N-NO 22 -5,7 C -6,8 C
12.12.2012 00:26 -3,1 C 81 % 1021,7 hPa 0,0 l/m 11,2 km/h (2 Bft) N-NO 22 -5,9 C -7,4 C
12.12.2012 00:31 -3,1 C 81 % 1021,8 hPa 0,0 l/m 4,7 km/h (1 Bft) N-NO 22 -5,9 C -4,9 C
12.12.2012 00:36 -3,2 C 81 % 1021,9 hPa 0,0 l/m 7,2 km/h (2 Bft) N-NO 22 -6,0 C -6,2 C
12.12.2012 00:41 -3,2 C 82 % 1021,9 hPa 0,0 l/m 8,3 km/h (2 Bft) N-NO 22 -5,8 C -6,6 C
12.12.2012 00:46 -3,2 C 82 % 1021,8 hPa 0,0 l/m 6,1 km/h (2 Bft) N-NO 22 -5,8 C -5,7 C
12.12.2012 00:51 -3,2 C 82 % 1022,0 hPa 0,0 l/m 14,4 km/h (3 Bft) N-NO 22 -5,8 C -8,2 C
12.12.2012 00:56 -3,3 C 82 % 1021,8 hPa 0,0 l/m 10,1 km/h (2 Bft) N-NO 22 -5,9 C -7,3 C
12.12.2012 01:01 -3,3 C 82 % 1021,9 hPa 0,0 l/m 10,1 km/h (2 Bft) N-NO 22 -5,9 C -7,3 C
12.12.2012 01:06 -3,4 C 82 % 1021,8 hPa 0,0 l/m 4,7 km/h (1 Bft) N-NO 22 -6,0 C -5,3 C
12.12.2012 01:11 -3,4 C 82 % 1021,9 hPa 0,0 l/m 9,4 km/h (2 Bft) N-NO 22 -6,0 C -7,2 C
12.12.2012 01:16 -3,4 C 82 % 1022,0 hPa 0,0 l/m 7,2 km/h (2 Bft) N-NO 22 -6,0 C -6,4 C
12.12.2012 01:21 -3,4 C 82 % 1022,0 hPa 0,0 l/m 7,6 km/h (2 Bft) N-NO 22 -6,0 C -6,6 C
12.12.2012 01:26 -3,4 C 82 % 1021,9 hPa 0,0 l/m 5,8 km/h (2 Bft) N-NO 22 -6,0 C -5,8 C
12.12.2012 01:31 -3,4 C 82 % 1021,9 hPa 0,0 l/m 11,2 km/h (2 Bft) N-NO 22 -6,0 C -7,7 C
12.12.2012 01:36 -3,4 C 82 % 1022,0 hPa 0,0 l/m 2,2 km/h (1 Bft) N-NO 22 -6,0 C -3,4 C
12.12.2012 01:41 -3,4 C 82 % 1021,9 hPa 0,0 l/m 3,2 km/h (1 Bft) N-NO 22 -6,0 C -3,4 C
12.12.2012 01:46 -3,5 C 82 % 1022,1 hPa 0,0 l/m 3,2 km/h (1 Bft) N-NO 22 -6,1 C -3,5 C
12.12.2012 01:51 -3,5 C 82 % 1022,1 hPa 0,0 l/m 6,8 km/h (2 Bft) N-NO 22 -6,1 C -6,4 C
12.12.2012 01:56 -3,6 C 82 % 1022,1 hPa 0,0 l/m 6,1 km/h (2 Bft) N-NO 22 -6,2 C -6,2 C
12.12.2012 02:01 -3,6 C 82 % 1022,0 hPa 0,0 l/m 12,6 km/h (3 Bft) N-NO 22 -6,2 C -8,3 C
12.12.2012 02:06 -3,7 C 82 % 1022,1 hPa 0,0 l/m 7,6 km/h (2 Bft) N-NO 22 -6,3 C -6,9 C
12.12.2012 02:11 -3,8 C 82 % 1022,0 hPa 0,0 l/m 6,1 km/h (2 Bft) N-NO 22 -6,4 C -6,4 C
12.12.2012 02:16 -3,8 C 83 % 1021,9 hPa 0,0 l/m 4,0 km/h (1 Bft) N-NO 22 -6,3 C -3,8 C
12.12.2012 02:21 -3,9 C 83 % 1022,0 hPa 0,0 l/m 6,8 km/h (2 Bft) N-NO 22 -6,4 C -6,9 C
12.12.2012 02:26 -3,9 C 83 % 1022,1 hPa 0,0 l/m 4,0 km/h (1 Bft) N-NO 22 -6,4 C -3,9 C
12.12.2012 02:31 -3,9 C 83 % 1022,1 hPa 0,0 l/m 6,5 km/h (2 Bft) N-NO 22 -6,4 C -6,7 C
12.12.2012 02:36 -3,9 C 83 % 1022,1 hPa 0,0 l/m 4,0 km/h (1 Bft) N-NO 22 -6,4 C -3,9 C
12.12.2012 02:41 -3,9 C 83 % 1022,1 hPa 0,0 l/m 10,8 km/h (2 Bft) N-NO 22 -6,4 C -8,2 C
12.12.2012 02:46 -4,1 C 83 % 1022,1 hPa 0,0 l/m 0,0 km/h (0 Bft) N-NO 22 -6,5 C -4,1 C
12.12.2012 02:51 -4,1 C 83 % 1022,2 hPa 0,0 l/m 3,6 km/h (1 Bft) N-NO 22 -6,5 C -4,1 C
12.12.2012 02:56 -4,2 C 83 % 1022,0 hPa 0,0 l/m 4,7 km/h (1 Bft) N-NO 22 -6,6 C -6,2 C
12.12.2012 03:01 -4,4 C 83 % 1021,9 hPa 0,0 l/m 4,3 km/h (1 Bft) N-NO 22 -6,8 C -4,4 C
12.12.2012 03:06 -4,5 C 83 % 1021,9 hPa 0,0 l/m 4,3 km/h (1 Bft) N-NO 22 -6,9 C -4,5 C
12.12.2012 03:11 -4,7 C 83 % 1022,0 hPa 0,0 l/m 3,6 km/h (1 Bft) N-NO 22 -7,1 C -4,7 C
12.12.2012 03:16 -4,8 C 84 % 1021,9 hPa 0,0 l/m 2,5 km/h (1 Bft) N-NO 22 -7,1 C -4,8 C
12.12.2012 03:21 -4,9 C 84 % 1022,0 hPa 0,0 l/m 4,0 km/h (1 Bft) N-NO 22 -7,2 C -4,9 C
12.12.2012 03:26 -5,1 C 84 % 1022,0 hPa 0,0 l/m 3,2 km/h (1 Bft) N-NO 22 -7,4 C -5,1 C
12.12.2012 03:31 -5,1 C 84 % 1022,0 hPa 0,0 l/m 4,0 km/h (1 Bft) N-NO 22 -7,4 C -5,1 C
12.12.2012 03:36 -5,2 C 84 % 1022,0 hPa 0,0 l/m 1,4 km/h (1 Bft) N-NO 22 -7,5 C -5,2 C
12.12.2012 03:41 -5,4 C 84 % 1021,8 hPa 0,0 l/m 2,2 km/h (1 Bft) N-NO 22 -7,7 C -5,4 C
12.12.2012 03:46 -5,5 C 84 % 1021,9 hPa 0,0 l/m 0,0 km/h (0 Bft) N-NO 22 -7,8 C -5,5 C
12.12.2012 03:51 -5,6 C 85 % 1021,9 hPa 0,0 l/m 2,2 km/h (1 Bft) N-NO 22 -7,7 C -5,6 C
12.12.2012 03:56 -5,6 C 85 % 1021,9 hPa 0,0 l/m 6,1 km/h (2 Bft) N-NO 22 -7,7 C -8,5 C
12.12.2012 04:01 -5,7 C 85 % 1022,1 hPa 0,0 l/m 2,2 km/h (1 Bft) N-NO 22 -7,8 C -5,7 C
12.12.2012 04:06 -5,9 C 85 % 1021,9 hPa 0,0 l/m 1,4 km/h (1 Bft) N-NO 22 -8,0 C -5,9 C
12.12.2012 04:11 -5,9 C 85 % 1021,9 hPa 0,0 l/m 5,8 km/h (2 Bft) N-NO 22 -8,0 C -8,7 C
12.12.2012 04:16 -6,1 C 86 % 1021,9 hPa 0,0 l/m 5,8 km/h (2 Bft) N-NO 22 -8,0 C -8,9 C
12.12.2012 04:21 -6,1 C 86 % 1021,7 hPa 0,0 l/m 7,9 km/h (2 Bft) N-NO 22 -8,0 C -9,9 C
12.12.2012 04:26 -6,2 C 86 % 1021,7 hPa 0,0 l/m 0,0 km/h (0 Bft) N-NO 22 -8,1 C -6,2 C
12.12.2012 04:31 -6,2 C 86 % 1021,7 hPa 0,0 l/m 3,2 km/h (1 Bft) N-NO 22 -8,1 C -6,2 C
12.12.2012 04:36 -6,4 C 86 % 1021,6 hPa 0,0 l/m 0,0 km/h (0 Bft) N-NO 22 -8,3 C -6,4 C
12.12.2012 04:41 -6,4 C 86 % 1021,6 hPa 0,0 l/m 2,2 km/h (1 Bft) N-NO 22 -8,3 C -6,4 C
12.12.2012 04:46 -6,4 C 86 % 1021,6 hPa 0,0 l/m 4,7 km/h (1 Bft) N-NO 22 -8,3 C -8,7 C
12.12.2012 04:51 -6,4 C 87 % 1021,6 hPa 0,0 l/m 4,0 km/h (1 Bft) N-NO 22 -8,2 C -6,4 C
12.12.2012 04:56 -6,5 C 87 % 1021,6 hPa 0,0 l/m 7,9 km/h (2 Bft) N-NO 22 -8,3 C -10,3 C
12.12.2012 05:01 -6,6 C 87 % 1021,7 hPa 0,0 l/m 9,4 km/h (2 Bft) N-NO 22 -8,4 C -11,0 C
12.12.2012 05:06 -6,7 C 87 % 1021,5 hPa 0,0 l/m 4,3 km/h (1 Bft) N-NO 22 -8,5 C -6,7 C
12.12.2012 05:11 -6,6 C 87 % 1021,5 hPa 0,0 l/m 4,7 km/h (1 Bft) N-NO 22 -8,4 C -8,9 C
12.12.2012 05:16 -6,6 C 87 % 1021,5 hPa 0,0 l/m 2,2 km/h (1 Bft) N-NO 22 -8,4 C -6,6 C
12.12.2012 05:21 -6,6 C 87 % 1021,5 hPa 0,0 l/m 4,0 km/h (1 Bft) N-NO 22 -8,4 C -6,6 C
12.12.2012 05:26 -6,5 C 88 % 1021,4 hPa 0,0 l/m 0,0 km/h (0 Bft) N-NO 22 -8,1 C -6,5 C
12.12.2012 05:31 -6,5 C 88 % 1021,4 hPa 0,0 l/m 1,1 km/h (1 Bft) N-NO 22 -8,1 C -6,5 C
12.12.2012 05:36 -6,4 C 88 % 1021,4 hPa 0,0 l/m 2,2 km/h (1 Bft) N-NO 22 -8,1 C -6,4 C
12.12.2012 05:41 -6,4 C 88 % 1021,4 hPa 0,0 l/m 1,8 km/h (1 Bft) N-NO 22 -8,1 C -6,4 C
12.12.2012 05:46 -6,4 C 88 % 1021,3 hPa 0,0 l/m 4,0 km/h (1 Bft) N-NO 22 -8,1 C -6,4 C
12.12.2012 05:51 -6,2 C 88 % 1021,2 hPa 0,0 l/m 4,0 km/h (1 Bft) N-NO 22 -7,9 C -6,2 C
12.12.2012 05:56 -6,2 C 89 % 1021,4 hPa 0,0 l/m 2,2 km/h (1 Bft) N-NO 22 -7,7 C -6,2 C
12.12.2012 06:01 -6,1 C 89 % 1021,2 hPa 0,0 l/m 0,0 km/h (0 Bft) N-NO 22 -7,6 C -6,1 C
12.12.2012 06:06 -6,1 C 89 % 1021,1 hPa 0,0 l/m 2,5 km/h (1 Bft) N-NO 22 -7,6 C -6,1 C
12.12.2012 06:11 -5,9 C 89 % 1021,1 hPa 0,0 l/m 4,3 km/h (1 Bft) N-NO 22 -7,4 C -5,9 C
12.12.2012 06:16 -5,9 C 89 % 1021,1 hPa 0,0 l/m 4,0 km/h (1 Bft) N-NO 22 -7,4 C -5,9 C
12.12.2012 06:21 -5,7 C 89 % 1021,1 hPa 0,0 l/m 3,2 km/h (1 Bft) N-NO 22 -7,2 C -5,7 C
12.12.2012 06:26 -5,7 C 89 % 1021,0 hPa 0,0 l/m 0,0 km/h (0 Bft) N-NO 22 -7,2 C -5,7 C
12.12.2012 06:31 -5,6 C 89 % 1021,0 hPa 0,0 l/m 1,8 km/h (1 Bft) N-NO 22 -7,1 C -5,6 C
12.12.2012 06:36 -5,5 C 89 % 1021,0 hPa 0,0 l/m 2,5 km/h (1 Bft) N-NO 22 -7,0 C -5,5 C
12.12.2012 06:41 -5,4 C 89 % 1020,8 hPa 0,0 l/m 0,0 km/h (0 Bft) N-NO 22 -6,9 C -5,4 C
12.12.2012 06:46 -5,4 C 89 % 1020,8 hPa 0,0 l/m 0,0 km/h (0 Bft) N-NO 22 -6,9 C -5,4 C
12.12.2012 06:51 -5,3 C 90 % 1020,8 hPa 0,0 l/m 5,4 km/h (1 Bft) N-NO 22 -6,7 C -7,8 C
12.12.2012 06:56 -5,4 C 89 % 1021,1 hPa 0,0 l/m 2,9 km/h (1 Bft) N-NO 22 -6,9 C -5,4 C
12.12.2012 07:01 -5,4 C 89 % 1021,0 hPa 0,0 l/m 1,1 km/h (1 Bft) N-NO 22 -6,9 C -5,4 C
12.12.2012 07:06 -5,4 C 90 % 1021,0 hPa 0,0 l/m 3,6 km/h (1 Bft) N-NO 22 -6,8 C -5,4 C
12.12.2012 07:11 -5,3 C 90 % 1021,1 hPa 0,0 l/m 1,1 km/h (1 Bft) N-NO 22 -6,7 C -5,3 C
12.12.2012 07:16 -5,2 C 90 % 1021,2 hPa 0,0 l/m 3,2 km/h (1 Bft) N-NO 22 -6,6 C -5,2 C
12.12.2012 07:21 -5,2 C 90 % 1021,0 hPa 0,0 l/m 0,0 km/h (0 Bft) N-NO 22 -6,6 C -5,2 C
12.12.2012 07:26 -5,2 C 90 % 1021,1 hPa 0,0 l/m 1,4 km/h (1 Bft) N-NO 22 -6,6 C -5,2 C
12.12.2012 07:31 -5,1 C 90 % 1021,2 hPa 0,0 l/m 2,9 km/h (1 Bft) N-NO 22 -6,5 C -5,1 C
12.12.2012 07:36 -5,1 C 90 % 1021,1 hPa 0,0 l/m 4,0 km/h (1 Bft) N-NO 22 -6,5 C -5,1 C
12.12.2012 07:41 -5,0 C 90 % 1021,1 hPa 0,0 l/m 0,0 km/h (0 Bft) N-NO 22 -6,4 C -5,0 C
12.12.2012 07:46 -4,9 C 90 % 1021,1 hPa 0,0 l/m 5,0 km/h (1 Bft) N-NO 22 -6,3 C -7,1 C
12.12.2012 07:51 -4,9 C 90 % 1021,2 hPa 0,0 l/m 0,0 km/h (0 Bft) N-NO 22 -6,3 C -4,9 C
12.12.2012 07:56 -4,8 C 90 % 1021,2 hPa 0,0 l/m 0,0 km/h (0 Bft) N-NO 22 -6,2 C -4,8 C
12.12.2012 08:01 -4,8 C 90 % 1021,2 hPa 0,0 l/m 0,0 km/h (0 Bft) N-NO 22 -6,2 C -4,8 C
12.12.2012 08:06 -4,8 C 90 % 1021,0 hPa 0,0 l/m 4,0 km/h (1 Bft) N-NO 22 -6,2 C -4,8 C
12.12.2012 08:11 -4,8 C 90 % 1021,2 hPa 0,0 l/m 2,9 km/h (1 Bft) N-NO 22 -6,2 C -4,8 C
12.12.2012 08:16 -4,8 C 90 % 1021,1 hPa 0,0 l/m 3,2 km/h (1 Bft) N-NO 22 -6,2 C -4,8 C
12.12.2012 08:21 -4,8 C 90 % 1021,1 hPa 0,0 l/m 5,4 km/h (1 Bft) N-NO 22 -6,2 C -7,2 C
12.12.2012 08:26 -4,9 C 90 % 1021,1 hPa 0,0 l/m 4,0 km/h (1 Bft) N-NO 22 -6,3 C -4,9 C
12.12.2012 08:31 -4,9 C 90 % 1021,2 hPa 0,0 l/m 1,4 km/h (1 Bft) N-NO 22 -6,3 C -4,9 C
12.12.2012 08:36 -4,9 C 90 % 1021,4 hPa 0,0 l/m 1,4 km/h (1 Bft) N-NO 22 -6,3 C -4,9 C
12.12.2012 08:41 -5,0 C 90 % 1021,4 hPa 0,0 l/m 2,2 km/h (1 Bft) N-NO 22 -6,4 C -5,0 C
12.12.2012 08:46 -5,0 C 90 % 1021,2 hPa 0,0 l/m 2,2 km/h (1 Bft) N-NO 22 -6,4 C -5,0 C
12.12.2012 08:51 -4,9 C 90 % 1021,3 hPa 0,0 l/m 0,0 km/h (0 Bft) N-NO 22 -6,3 C -4,9 C
12.12.2012 08:56 -4,8 C 90 % 1021,3 hPa 0,0 l/m 0,0 km/h (0 Bft) N-NO 22 -6,2 C -4,8 C
12.12.2012 09:01 -4,7 C 90 % 1021,5 hPa 0,0 l/m 0,0 km/h (0 Bft) N-NO 22 -6,1 C -4,7 C
12.12.2012 09:06 -4,7 C 90 % 1021,5 hPa 0,0 l/m 0,0 km/h (0 Bft) N-NO 22 -6,1 C -4,7 C
12.12.2012 09:11 -4,7 C 90 % 1021,4 hPa 0,0 l/m 0,0 km/h (0 Bft) N-NO 22 -6,1 C -4,7 C
12.12.2012 09:16 -4,7 C 90 % 1021,6 hPa 0,0 l/m 0,0 km/h (0 Bft) N-NO 22 -6,1 C -4,7 C
12.12.2012 09:21 -4,6 C 90 % 1021,5 hPa 0,0 l/m 1,8 km/h (1 Bft) N-NO 22 -6,0 C -4,6 C
12.12.2012 09:26 -4,6 C 90 % 1021,5 hPa 0,0 l/m 1,8 km/h (1 Bft) N-NO 22 -6,0 C -4,6 C
12.12.2012 09:31 -4,6 C 90 % 1021,3 hPa 0,0 l/m 2,9 km/h (1 Bft) N-NO 22 -6,0 C -4,6 C
12.12.2012 09:36 -4,7 C 90 % 1021,5 hPa 0,0 l/m 1,4 km/h (1 Bft) N-NO 22 -6,1 C -4,7 C
12.12.2012 09:41 -4,6 C 91 % 1021,5 hPa 0,0 l/m 5,0 km/h (1 Bft) N-NO 22 -5,8 C -6,8 C
12.12.2012 09:46 -4,5 C 91 % 1021,4 hPa 0,0 l/m 3,2 km/h (1 Bft) N-NO 22 -5,7 C -4,5 C
12.12.2012 09:51 -4,4 C 91 % 1021,6 hPa 0,0 l/m 0,0 km/h (0 Bft) N-NO 22 -5,6 C -4,4 C
12.12.2012 09:56 -4,4 C 91 % 1021,7 hPa 0,0 l/m 5,8 km/h (2 Bft) N-NO 22 -5,6 C -7,0 C
12.12.2012 10:01 -4,4 C 91 % 1021,4 hPa 0,0 l/m 3,2 km/h (1 Bft) N-NO 22 -5,6 C -4,4 C
12.12.2012 10:06 -4,4 C 91 % 1021,6 hPa 0,0 l/m 0,0 km/h (0 Bft) N-NO 22 -5,6 C -4,4 C
12.12.2012 10:11 -4,4 C 90 % 1021,7 hPa 0,0 l/m 7,2 km/h (2 Bft) N-NO 22 -5,8 C -7,6 C
12.12.2012 10:16 -4,4 C 90 % 1021,6 hPa 0,0 l/m 5,0 km/h (1 Bft) N-NO 22 -5,8 C -6,6 C
12.12.2012 10:21 -4,4 C 90 % 1021,7 hPa 0,0 l/m 5,0 km/h (1 Bft) N-NO 22 -5,8 C -6,6 C
12.12.2012 10:26 -4,2 C 90 % 1021,7 hPa 0,0 l/m 5,8 km/h (2 Bft) N-NO 22 -5,6 C -6,8 C
12.12.2012 10:31 -4,2 C 90 % 1021,7 hPa 0,0 l/m 2,5 km/h (1 Bft) N-NO 22 -5,6 C -4,2 C
12.12.2012 10:36 -4,1 C 90 % 1021,5 hPa 0,0 l/m 2,9 km/h (1 Bft) N-NO 22 -5,5 C -4,1 C
12.12.2012 10:41 -4,1 C 90 % 1021,5 hPa 0,0 l/m 3,6 km/h (1 Bft) N-NO 22 -5,5 C -4,1 C
12.12.2012 10:46 -3,9 C 89 % 1021,5 hPa 0,0 l/m 3,2 km/h (1 Bft) N-NO 22 -5,4 C -3,9 C
12.12.2012 10:51 -3,9 C 89 % 1021,3 hPa 0,0 l/m 4,7 km/h (1 Bft) N-NO 22 -5,4 C -5,8 C
12.12.2012 10:56 -3,9 C 89 % 1021,4 hPa 0,0 l/m 5,8 km/h (2 Bft) N-NO 22 -5,4 C -6,4 C
12.12.2012 11:01 -3,9 C 89 % 1021,4 hPa 0,0 l/m 5,0 km/h (1 Bft) N-NO 22 -5,4 C -6,0 C
12.12.2012 11:06 -3,9 C 89 % 1021,5 hPa 0,0 l/m 6,1 km/h (2 Bft) N-NO 22 -5,4 C -6,6 C
12.12.2012 11:11 -3,9 C 89 % 1021,3 hPa 0,0 l/m 4,0 km/h (1 Bft) N-NO 22 -5,4 C -3,9 C
12.12.2012 11:16 -3,9 C 89 % 1021,4 hPa 0,0 l/m 4,7 km/h (1 Bft) N-NO 22 -5,4 C -5,8 C
12.12.2012 11:21 -3,8 C 88 % 1021,5 hPa 0,0 l/m 3,6 km/h (1 Bft) N-NO 22 -5,5 C -3,8 C
12.12.2012 11:26 -3,9 C 88 % 1021,4 hPa 0,0 l/m 4,0 km/h (1 Bft) N-NO 22 -5,6 C -3,9 C
12.12.2012 11:31 -3,9 C 88 % 1021,2 hPa 0,0 l/m 4,7 km/h (1 Bft) N-NO 22 -5,6 C -5,8 C
12.12.2012 11:36 -3,9 C 88 % 1021,1 hPa 0,0 l/m 6,5 km/h (2 Bft) N-NO 22 -5,6 C -6,7 C
12.12.2012 11:41 -3,9 C 88 % 1021,2 hPa 0,0 l/m 3,2 km/h (1 Bft) N-NO 22 -5,6 C -3,9 C
12.12.2012 11:46 -3,8 C 88 % 1021,3 hPa 0,0 l/m 6,5 km/h (2 Bft) N-NO 22 -5,5 C -6,6 C
12.12.2012 11:51 -3,7 C 88 % 1021,2 hPa 0,0 l/m 5,0 km/h (1 Bft) N-NO 22 -5,4 C -5,8 C
12.12.2012 11:56 -3,7 C 88 % 1021,1 hPa 0,0 l/m 5,4 km/h (1 Bft) N-NO 22 -5,4 C -6,0 C
12.12.2012 12:01 -3,7 C 88 % 1021,1 hPa 0,0 l/m 6,1 km/h (2 Bft) N-NO 22 -5,4 C -6,3 C
12.12.2012 12:06 -3,7 C 88 % 1021,1 hPa 0,0 l/m 5,0 km/h (1 Bft) N-NO 22 -5,4 C -5,8 C
12.12.2012 12:11 -3,7 C 88 % 1021,1 hPa 0,0 l/m 7,2 km/h (2 Bft) N-NO 22 -5,4 C -6,8 C
12.12.2012 12:16 -3,7 C 88 % 1021,1 hPa 0,0 l/m 0,0 km/h (0 Bft) N-NO 22 -5,4 C -3,7 C
12.12.2012 12:21 -3,6 C 88 % 1021,1 hPa 0,0 l/m 6,8 km/h (2 Bft) N-NO 22 -5,3 C -6,5 C
12.12.2012 12:26 -3,6 C 88 % 1021,0 hPa 0,0 l/m 1,4 km/h (1 Bft) N-NO 22 -5,3 C -3,6 C
12.12.2012 12:31 -3,6 C 88 % 1020,8 hPa 0,0 l/m 1,4 km/h (1 Bft) N-NO 22 -5,3 C -3,6 C
12.12.2012 12:36 -3,6 C 88 % 1020,8 hPa 0,0 l/m 3,6 km/h (1 Bft) N-NO 22 -5,3 C -3,6 C
12.12.2012 12:41 -3,5 C 88 % 1020,8 hPa 0,0 l/m 6,1 km/h (2 Bft) N-NO 22 -5,2 C -6,1 C
12.12.2012 12:46 -3,4 C 88 % 1020,7 hPa 0,0 l/m 4,0 km/h (1 Bft) N-NO 22 -5,1 C -3,4 C
12.12.2012 12:51 -3,4 C 88 % 1020,5 hPa 0,0 l/m 4,0 km/h (1 Bft) N-NO 22 -5,1 C -3,4 C
12.12.2012 12:56 -3,2 C 88 % 1020,4 hPa 0,0 l/m 3,6 km/h (1 Bft) N-NO 22 -4,9 C -3,2 C
12.12.2012 13:01 -3,2 C 88 % 1020,5 hPa 0,0 l/m 6,8 km/h (2 Bft) N-NO 22 -4,9 C -6,0 C
12.12.2012 13:06 -3,1 C 87 % 1020,4 hPa 0,0 l/m 0,0 km/h (0 Bft) N-NO 22 -4,9 C -3,1 C
12.12.2012 13:11 -3,1 C 87 % 1020,4 hPa 0,0 l/m 2,9 km/h (1 Bft) N-NO 22 -4,9 C -3,1 C
12.12.2012 13:16 -3,1 C 87 % 1020,3 hPa 0,0 l/m 2,2 km/h (1 Bft) N-NO 22 -4,9 C -3,1 C
12.12.2012 13:21 -3,1 C 87 % 1020,4 hPa 0,0 l/m 4,7 km/h (1 Bft) N-NO 22 -4,9 C -4,9 C
12.12.2012 13:26 -3,2 C 87 % 1020,4 hPa 0,0 l/m 3,2 km/h (1 Bft) N-NO 22 -5,0 C -3,2 C
12.12.2012 13:31 -3,1 C 87 % 1020,5 hPa 0,0 l/m 9,4 km/h (2 Bft) N-NO 22 -4,9 C -6,8 C
12.12.2012 13:36 -3,2 C 87 % 1020,6 hPa 0,0 l/m 6,1 km/h (2 Bft) N-NO 22 -5,0 C -5,7 C
12.12.2012 13:41 -3,2 C 87 % 1020,4 hPa 0,0 l/m 2,9 km/h (1 Bft) N-NO 22 -5,0 C -3,2 C
12.12.2012 13:46 -3,3 C 87 % 1020,4 hPa 0,0 l/m 9,4 km/h (2 Bft) N-NO 22 -5,1 C -7,1 C
12.12.2012 13:51 -3,4 C 87 % 1020,4 hPa 0,0 l/m 3,6 km/h (1 Bft) N-NO 22 -5,2 C -3,4 C
12.12.2012 13:56 -3,4 C 87 % 1020,5 hPa 0,0 l/m 7,6 km/h (2 Bft) N-NO 22 -5,2 C -6,6 C
12.12.2012 14:01 -3,5 C 87 % 1020,3 hPa 0,0 l/m 7,6 km/h (2 Bft) N-NO 22 -5,3 C -6,7 C
12.12.2012 14:06 -3,5 C 88 % 1020,3 hPa 0,0 l/m 5,8 km/h (2 Bft) N-NO 22 -5,2 C -6,0 C
12.12.2012 14:11 -3,5 C 88 % 1020,2 hPa 0,0 l/m 4,7 km/h (1 Bft) N-NO 22 -5,2 C -5,4 C
12.12.2012 14:16 -3,4 C 88 % 1020,4 hPa 0,0 l/m 2,9 km/h (1 Bft) N-NO 22 -5,1 C -3,4 C
12.12.2012 14:21 -3,4 C 88 % 1020,3 hPa 0,0 l/m 4,7 km/h (1 Bft) N-NO 22 -5,1 C -5,3 C
12.12.2012 14:26 -3,3 C 88 % 1020,3 hPa 0,0 l/m 2,5 km/h (1 Bft) N-NO 22 -5,0 C -3,3 C
12.12.2012 14:31 -3,3 C 88 % 1020,3 hPa 0,0 l/m 1,8 km/h (1 Bft) N-NO 22 -5,0 C -3,3 C
12.12.2012 14:36 -3,3 C 88 % 1020,2 hPa 0,0 l/m 6,1 km/h (2 Bft) N-NO 22 -5,0 C -5,9 C
12.12.2012 14:41 -3,2 C 88 % 1020,2 hPa 0,0 l/m 4,0 km/h (1 Bft) N-NO 22 -4,9 C -3,2 C
12.12.2012 14:46 -3,2 C 88 % 1020,3 hPa 0,0 l/m 2,5 km/h (1 Bft) N-NO 22 -4,9 C -3,2 C
12.12.2012 14:51 -3,2 C 88 % 1020,1 hPa 0,0 l/m 4,7 km/h (1 Bft) N-NO 22 -4,9 C -5,1 C
12.12.2012 14:56 -3,1 C 88 % 1020,1 hPa 0,0 l/m 3,2 km/h (1 Bft) N-NO 22 -4,8 C -3,1 C
12.12.2012 15:01 -3,1 C 88 % 1020,2 hPa 0,0 l/m 3,2 km/h (1 Bft) N-NO 22 -4,8 C -3,1 C
12.12.2012 15:06 -3,1 C 88 % 1020,1 hPa 0,0 l/m 3,6 km/h (1 Bft) N-NO 22 -4,8 C -3,1 C
12.12.2012 15:11 -3,1 C 88 % 1020,1 hPa 0,0 l/m 6,1 km/h (2 Bft) N-NO 22 -4,8 C -5,6 C
12.12.2012 15:16 -3,2 C 88 % 1020,0 hPa 0,0 l/m 2,2 km/h (1 Bft) N-NO 22 -4,9 C -3,2 C
12.12.2012 15:21 -3,2 C 88 % 1020,0 hPa 0,0 l/m 0,0 km/h (0 Bft) N-NO 22 -4,9 C -3,2 C
12.12.2012 15:26 -3,2 C 88 % 1020,1 hPa 0,0 l/m 4,3 km/h (1 Bft) N-NO 22 -4,9 C -3,2 C
12.12.2012 15:31 -3,2 C 88 % 1020,0 hPa 0,0 l/m 3,6 km/h (1 Bft) N-NO 22 -4,9 C -3,2 C
12.12.2012 15:36 -3,2 C 88 % 1020,3 hPa 0,0 l/m 4,0 km/h (1 Bft) N-NO 22 -4,9 C -3,2 C
12.12.2012 15:41 -3,2 C 88 % 1020,3 hPa 0,0 l/m 0,0 km/h (0 Bft) N-NO 22 -4,9 C -3,2 C
12.12.2012 15:46 -3,2 C 88 % 1020,1 hPa 0,0 l/m 2,9 km/h (1 Bft) N-NO 22 -4,9 C -3,2 C
12.12.2012 15:51 -3,1 C 88 % 1020,0 hPa 0,0 l/m 6,1 km/h (2 Bft) N-NO 22 -4,8 C -5,6 C
12.12.2012 15:56 -3,1 C 88 % 1020,1 hPa 0,0 l/m 0,0 km/h (0 Bft) N-NO 22 -4,8 C -3,1 C
12.12.2012 16:01 -3,1 C 88 % 1020,1 hPa 0,0 l/m 3,2 km/h (1 Bft) N-NO 22 -4,8 C -3,1 C
12.12.2012 16:06 -3,1 C 88 % 1020,1 hPa 0,0 l/m 3,2 km/h (1 Bft) N-NO 22 -4,8 C -3,1 C
12.12.2012 16:11 -3,1 C 88 % 1020,1 hPa 0,0 l/m 4,7 km/h (1 Bft) N-NO 22 -4,8 C -4,9 C
12.12.2012 16:16 -3,1 C 88 % 1020,1 hPa 0,0 l/m 3,2 km/h (1 Bft) N-NO 22 -4,8 C -3,1 C
12.12.2012 16:21 -3,1 C 88 % 1020,3 hPa 0,0 l/m 5,0 km/h (1 Bft) N-NO 22 -4,8 C -5,1 C
12.12.2012 16:26 -3,1 C 88 % 1020,1 hPa 0,0 l/m 6,1 km/h (2 Bft) N-NO 22 -4,8 C -5,6 C
12.12.2012 16:31 -3,1 C 88 % 1020,2 hPa 0,0 l/m 3,6 km/h (1 Bft) N-NO 22 -4,8 C -3,1 C
12.12.2012 16:36 -3,1 C 88 % 1020,2 hPa 0,0 l/m 2,5 km/h (1 Bft) N-NO 22 -4,8 C -3,1 C
12.12.2012 16:41 -3,1 C 88 % 1020,1 hPa 0,0 l/m 4,3 km/h (1 Bft) N-NO 22 -4,8 C -3,1 C
12.12.2012 16:46 -3,1 C 88 % 1020,1 hPa 0,0 l/m 4,7 km/h (1 Bft) N-NO 22 -4,8 C -4,9 C
12.12.2012 16:51 -3,1 C 88 % 1020,0 hPa 0,0 l/m 4,0 km/h (1 Bft) N-NO 22 -4,8 C -3,1 C
12.12.2012 16:56 -3,1 C 88 % 1020,0 hPa 0,0 l/m 2,5 km/h (1 Bft) N-NO 22 -4,8 C -3,1 C
12.12.2012 17:01 -3,1 C 89 % 1020,1 hPa 0,0 l/m 3,2 km/h (1 Bft) N-NO 22 -4,6 C -3,1 C
12.12.2012 17:06 -3,1 C 89 % 1020,1 hPa 0,0 l/m 7,2 km/h (2 Bft) N-NO 22 -4,6 C -6,1 C
12.12.2012 17:11 -3,1 C 89 % 1020,1 hPa 0,0 l/m 1,8 km/h (1 Bft) N-NO 22 -4,6 C -3,1 C
12.12.2012 17:16 -3,1 C 89 % 1020,1 hPa 0,0 l/m 3,2 km/h (1 Bft) N-NO 22 -4,6 C -3,1 C
12.12.2012 17:21 -3,1 C 89 % 1020,1 hPa 0,0 l/m 4,3 km/h (1 Bft) N-NO 22 -4,6 C -3,1 C
12.12.2012 17:26 -3,1 C 89 % 1019,9 hPa 0,0 l/m 0,0 km/h (0 Bft) N-NO 22 -4,6 C -3,1 C
12.12.2012 17:31 -3,1 C 89 % 1020,0 hPa 0,0 l/m 5,0 km/h (1 Bft) N-NO 22 -4,6 C -5,1 C
12.12.2012 17:36 -3,1 C 89 % 1019,9 hPa 0,0 l/m 1,8 km/h (1 Bft) N-NO 22 -4,6 C -3,1 C
12.12.2012 17:41 -3,1 C 89 % 1019,9 hPa 0,0 l/m 4,7 km/h (1 Bft) N-NO 22 -4,6 C -4,9 C
12.12.2012 17:46 -3,1 C 89 % 1019,8 hPa 0,0 l/m 4,0 km/h (1 Bft) N-NO 22 -4,6 C -3,1 C
12.12.2012 17:51 -3,1 C 89 % 1019,7 hPa 0,0 l/m 3,6 km/h (1 Bft) N-NO 22 -4,6 C -3,1 C
12.12.2012 17:56 -3,1 C 89 % 1019,7 hPa 0,0 l/m 4,3 km/h (1 Bft) N-NO 22 -4,6 C -3,1 C
12.12.2012 18:01 -3,1 C 89 % 1019,7 hPa 0,0 l/m 0,0 km/h (0 Bft) N-NO 22 -4,6 C -3,1 C
12.12.2012 18:06 -3,1 C 89 % 1019,7 hPa 0,0 l/m 6,8 km/h (2 Bft) N-NO 22 -4,6 C -5,9 C
12.12.2012 18:11 -3,1 C 89 % 1019,5 hPa 0,0 l/m 3,6 km/h (1 Bft) N-NO 22 -4,6 C -3,1 C
12.12.2012 18:16 -3,2 C 89 % 1019,6 hPa 0,0 l/m 3,2 km/h (1 Bft) N-NO 22 -4,7 C -3,2 C
12.12.2012 18:21 -3,2 C 89 % 1019,6 hPa 0,0 l/m 2,9 km/h (1 Bft) N-NO 22 -4,7 C -3,2 C
12.12.2012 18:26 -3,1 C 89 % 1019,6 hPa 0,0 l/m 4,0 km/h (1 Bft) N-NO 22 -4,6 C -3,1 C
12.12.2012 18:31 -3,1 C 89 % 1019,6 hPa 0,0 l/m 4,0 km/h (1 Bft) N-NO 22 -4,6 C -3,1 C
12.12.2012 18:36 -3,1 C 89 % 1019,6 hPa 0,0 l/m 0,0 km/h (0 Bft) N-NO 22 -4,6 C -3,1 C
12.12.2012 18:41 -3,1 C 89 % 1019,5 hPa 0,0 l/m 7,6 km/h (2 Bft) N-NO 22 -4,6 C -6,2 C
12.12.2012 18:46 -3,2 C 89 % 1019,4 hPa 0,0 l/m 0,0 km/h (0 Bft) N-NO 22 -4,7 C -3,2 C
12.12.2012 18:51 -3,1 C 89 % 1019,6 hPa 0,0 l/m 3,2 km/h (1 Bft) N-NO 22 -4,6 C -3,1 C
12.12.2012 18:56 -3,1 C 89 % 1019,6 hPa 0,0 l/m 3,2 km/h (1 Bft) N-NO 22 -4,6 C -3,1 C
12.12.2012 19:01 -3,1 C 89 % 1019,5 hPa 0,0 l/m 4,3 km/h (1 Bft) N-NO 22 -4,6 C -3,1 C
12.12.2012 19:06 -3,1 C 89 % 1019,5 hPa 0,0 l/m 2,5 km/h (1 Bft) N-NO 22 -4,6 C -3,1 C
12.12.2012 19:11 -3,1 C 89 % 1019,4 hPa 0,0 l/m 7,6 km/h (2 Bft) N-NO 22 -4,6 C -6,2 C
12.12.2012 19:16 -3,1 C 89 % 1019,4 hPa 0,0 l/m 4,3 km/h (1 Bft) N-NO 22 -4,6 C -3,1 C
12.12.2012 19:21 -3,1 C 89 % 1019,4 hPa 0,0 l/m 5,0 km/h (1 Bft) N-NO 22 -4,6 C -5,1 C
12.12.2012 19:26 -3,1 C 89 % 1019,6 hPa 0,0 l/m 4,0 km/h (1 Bft) N-NO 22 -4,6 C -3,1 C
12.12.2012 19:31 -3,1 C 89 % 1019,5 hPa 0,0 l/m 4,7 km/h (1 Bft) N-NO 22 -4,6 C -4,9 C
12.12.2012 19:36 -3,1 C 89 % 1019,4 hPa 0,0 l/m 4,3 km/h (1 Bft) N-NO 22 -4,6 C -3,1 C
12.12.2012 19:41 -3,1 C 89 % 1019,4 hPa 0,0 l/m 7,2 km/h (2 Bft) N-NO 22 -4,6 C -6,1 C
12.12.2012 19:46 -3,2 C 89 % 1019,3 hPa 0,0 l/m 4,0 km/h (1 Bft) N-NO 22 -4,7 C -3,2 C
12.12.2012 19:51 -3,1 C 89 % 1019,3 hPa 0,0 l/m 2,5 km/h (1 Bft) N-NO 22 -4,6 C -3,1 C
12.12.2012 19:56 -3,1 C 89 % 1019,3 hPa 0,0 l/m 2,9 km/h (1 Bft) N-NO 22 -4,6 C -3,1 C
12.12.2012 20:01 -3,1 C 89 % 1019,3 hPa 0,0 l/m 4,3 km/h (1 Bft) N-NO 22 -4,6 C -3,1 C
12.12.2012 20:06 -3,1 C 90 % 1019,3 hPa 0,0 l/m 8,3 km/h (2 Bft) N-NO 22 -4,5 C -6,5 C
12.12.2012 20:11 -3,1 C 90 % 1019,3 hPa 0,0 l/m 4,7 km/h (1 Bft) N-NO 22 -4,5 C -4,9 C
12.12.2012 20:16 -3,1 C 90 % 1019,2 hPa 0,0 l/m 6,1 km/h (2 Bft) N-NO 22 -4,5 C -5,6 C
12.12.2012 20:21 -3,1 C 90 % 1019,2 hPa 0,0 l/m 2,9 km/h (1 Bft) N-NO 22 -4,5 C -3,1 C
12.12.2012 20:26 -3,1 C 90 % 1019,2 hPa 0,0 l/m 3,6 km/h (1 Bft) N-NO 22 -4,5 C -3,1 C
12.12.2012 20:31 -3,2 C 90 % 1019,2 hPa 0,0 l/m 4,0 km/h (1 Bft) N-NO 22 -4,6 C -3,2 C
12.12.2012 20:36 -3,2 C 90 % 1019,3 hPa 0,0 l/m 1,8 km/h (1 Bft) N-NO 22 -4,6 C -3,2 C
12.12.2012 20:41 -3,1 C 90 % 1019,2 hPa 0,0 l/m 0,0 km/h (0 Bft) N-NO 22 -4,5 C -3,1 C
12.12.2012 20:46 -3,1 C 90 % 1019,1 hPa 0,0 l/m 8,3 km/h (2 Bft) N-NO 22 -4,5 C -6,5 C
12.12.2012 20:51 -3,1 C 90 % 1019,2 hPa 0,0 l/m 3,2 km/h (1 Bft) N-NO 22 -4,5 C -3,1 C
12.12.2012 20:56 -3,1 C 90 % 1019,2 hPa 0,0 l/m 2,2 km/h (1 Bft) N-NO 22 -4,5 C -3,1 C
12.12.2012 21:01 -3,1 C 90 % 1019,1 hPa 0,0 l/m 5,8 km/h (2 Bft) N-NO 22 -4,5 C -5,5 C
12.12.2012 21:06 -3,1 C 90 % 1019,1 hPa 0,0 l/m 3,2 km/h (1 Bft) N-NO 22 -4,5 C -3,1 C
12.12.2012 21:11 -3,1 C 90 % 1019,3 hPa 0,0 l/m 4,3 km/h (1 Bft) N-NO 22 -4,5 C -3,1 C
12.12.2012 21:16 -3,1 C 90 % 1019,2 hPa 0,0 l/m 10,8 km/h (2 Bft) N-NO 22 -4,5 C -7,2 C
12.12.2012 21:21 -3,1 C 90 % 1019,2 hPa 0,0 l/m 5,8 km/h (2 Bft) N-NO 22 -4,5 C -5,5 C
12.12.2012 21:26 -3,1 C 90 % 1019,2 hPa 0,0 l/m 1,8 km/h (1 Bft) N-NO 22 -4,5 C -3,1 C
12.12.2012 21:31 -3,1 C 90 % 1019,3 hPa 0,0 l/m 2,9 km/h (1 Bft) N-NO 22 -4,5 C -3,1 C
12.12.2012 21:36 -3,0 C 90 % 1019,3 hPa 0,0 l/m 5,0 km/h (1 Bft) N-NO 22 -4,4 C -5,0 C
12.12.2012 21:41 -3,0 C 90 % 1019,2 hPa 0,0 l/m 0,0 km/h (0 Bft) N-NO 22 -4,4 C -3,0 C
12.12.2012 21:46 -3,0 C 90 % 1019,2 hPa 0,0 l/m 6,8 km/h (2 Bft) N-NO 22 -4,4 C -5,8 C
12.12.2012 21:51 -3,0 C 90 % 1019,2 hPa 0,0 l/m 4,0 km/h (1 Bft) N-NO 22 -4,4 C -3,0 C
12.12.2012 21:56 -3,0 C 90 % 1019,3 hPa 0,0 l/m 5,4 km/h (1 Bft) N-NO 22 -4,4 C -5,2 C
12.12.2012 22:01 -2,9 C 90 % 1019,3 hPa 0,0 l/m 4,7 km/h (1 Bft) N-NO 22 -4,3 C -4,7 C
12.12.2012 22:06 -2,9 C 90 % 1019,3 hPa 0,0 l/m 11,5 km/h (2 Bft) N-NO 22 -4,3 C -7,2 C
12.12.2012 22:11 -2,9 C 90 % 1019,2 hPa 0,0 l/m 8,6 km/h (2 Bft) N-NO 22 -4,3 C -6,3 C
12.12.2012 22:16 -2,9 C 90 % 1019,3 hPa 0,0 l/m 5,0 km/h (1 Bft) N-NO 22 -4,3 C -4,9 C
12.12.2012 22:21 -2,9 C 90 % 1019,2 hPa 0,0 l/m 3,2 km/h (1 Bft) N-NO 22 -4,3 C -2,9 C
12.12.2012 22:26 -2,9 C 90 % 1019,4 hPa 0,0 l/m 6,5 km/h (2 Bft) N-NO 22 -4,3 C -5,6 C
12.12.2012 22:31 -2,9 C 90 % 1019,2 hPa 0,0 l/m 5,4 km/h (1 Bft) N-NO 22 -4,3 C -5,1 C
12.12.2012 22:36 -2,9 C 90 % 1019,2 hPa 0,0 l/m 4,0 km/h (1 Bft) N-NO 22 -4,3 C -2,9 C
12.12.2012 22:41 -2,9 C 90 % 1019,2 hPa 0,0 l/m 9,4 km/h (2 Bft) N-NO 22 -4,3 C -6,6 C
12.12.2012 22:46 -2,9 C 90 % 1019,3 hPa 0,0 l/m 5,0 km/h (1 Bft) N-NO 22 -4,3 C -4,9 C
12.12.2012 22:51 -2,9 C 90 % 1019,2 hPa 0,0 l/m 6,5 km/h (2 Bft) N-NO 22 -4,3 C -5,6 C
12.12.2012 22:56 -2,9 C 90 % 1019,2 hPa 0,0 l/m 4,0 km/h (1 Bft) N-NO 22 -4,3 C -2,9 C
12.12.2012 23:01 -2,9 C 90 % 1019,3 hPa 0,0 l/m 2,5 km/h (1 Bft) N-NO 22 -4,3 C -2,9 C
12.12.2012 23:06 -2,8 C 90 % 1019,3 hPa 0,0 l/m 6,5 km/h (2 Bft) N-NO 22 -4,2 C -5,5 C
12.12.2012 23:11 -2,8 C 90 % 1019,1 hPa 0,0 l/m 3,2 km/h (1 Bft) N-NO 22 -4,2 C -2,8 C
12.12.2012 23:16 -2,8 C 90 % 1019,1 hPa 0,0 l/m 4,3 km/h (1 Bft) N-NO 22 -4,2 C -2,8 C
12.12.2012 23:21 -2,8 C 90 % 1019,2 hPa 0,0 l/m 5,8 km/h (2 Bft) N-NO 22 -4,2 C -5,2 C
12.12.2012 23:26 -2,8 C 90 % 1019,0 hPa 0,0 l/m 3,6 km/h (1 Bft) N-NO 22 -4,2 C -2,8 C
12.12.2012 23:31 -2,8 C 90 % 1019,0 hPa 0,0 l/m 2,5 km/h (1 Bft) N-NO 22 -4,2 C -2,8 C
12.12.2012 23:36 -2,7 C 90 % 1019,2 hPa 0,0 l/m 2,5 km/h (1 Bft) N-NO 22 -4,1 C -2,7 C
12.12.2012 23:41 -2,7 C 90 % 1019,0 hPa 0,0 l/m 5,8 km/h (2 Bft) N-NO 22 -4,1 C -5,0 C
12.12.2012 23:46 -2,7 C 90 % 1019,0 hPa 0,0 l/m 7,2 km/h (2 Bft) N-NO 22 -4,1 C -5,6 C
12.12.2012 23:51 -2,7 C 90 % 1019,0 hPa 0,0 l/m 2,5 km/h (1 Bft) N-NO 22 -4,1 C -2,7 C
12.12.2012 23:56 -2,7 C 90 % 1019,0 hPa 0,0 l/m 1,4 km/h (1 Bft) N-NO 22 -4,1 C -2,7 C
_ Min-Zeit 05:06 00:26 23:26 - 02:46 - - 05:06 05:01
Minimum _ -6,7 C 81 % 1019,0 hPa - 0,0 km/h (0 Bft) - - -8,5 C -11,0 C
_ Max-Zeit 23:36 09:41 02:51 00:01 00:51 - - 23:36 23:36
Maximum _ -2,7 C 91 % 1022,2 hPa 0,0 l/m 14,4 km/h
N-NO (3 Bft)
- - -4,1 C -2,7 C
Durchschnitt _ -3,9 C 88 % 1020,7 hPa #0,0 l/m 4,1 km/h (1 Bft) N-NO - -5,6 C -5,0 C
(c) by David Heller